createdAt,value
2019-04-07T00:01:50.473Z,26.93
2019-04-07T00:04:19.213Z,22.52
2019-04-07T00:06:47.907Z,24.45
2019-04-07T00:09:16.599Z,26.07
2019-04-07T00:11:45.290Z,22.95
2019-04-07T00:14:13.970Z,30.48
2019-04-07T00:16:42.699Z,22.82
2019-04-07T00:19:11.336Z,25.20
2019-04-07T00:21:40.012Z,23.80
2019-04-07T00:24:09.231Z,24.10
2019-04-07T00:26:38.097Z,27.07
2019-04-07T00:29:06.786Z,24.43
2019-04-07T00:31:35.457Z,27.17
2019-04-07T00:34:04.160Z,26.50
2019-04-07T00:36:32.932Z,27.75
2019-04-07T00:39:01.638Z,23.52
2019-04-07T00:41:30.845Z,20.80
2019-04-07T00:44:00.032Z,21.40
2019-04-07T00:46:28.900Z,21.65
2019-04-07T00:48:57.820Z,22.55
2019-04-07T00:51:26.794Z,24.25
2019-04-07T00:53:56.058Z,19.77
2019-04-07T00:56:25.045Z,21.17
2019-04-07T00:58:55.962Z,26.37
2019-04-07T01:03:55.670Z,21.50
2019-04-07T01:06:24.436Z,24.85
2019-04-07T01:08:53.658Z,24.87
2019-04-07T01:11:23.077Z,24.82
2019-04-07T01:13:51.999Z,20.15
2019-04-07T01:16:20.791Z,23.57
2019-04-07T01:18:49.476Z,24.55
2019-04-07T01:21:18.168Z,23.35
2019-04-07T01:23:46.903Z,19.02
2019-04-07T01:26:16.323Z,21.42
2019-04-07T01:28:45.601Z,24.32
2019-04-07T01:31:14.381Z,27.50
2019-04-07T01:33:43.185Z,19.85
2019-04-07T01:36:12.637Z,28.20
2019-04-07T01:38:42.162Z,19.75
2019-04-07T01:41:12.540Z,21.20
2019-04-07T01:43:49.336Z,20.85
2019-04-07T01:46:26.176Z,23.30
2019-04-07T01:49:05.628Z,19.23
2019-04-07T01:51:47.902Z,19.10
2019-04-07T01:54:18.180Z,20.10
2019-04-07T01:57:05.714Z,19.45
2019-04-07T01:59:36.522Z,20.00
2019-04-07T02:02:12.581Z,22.60
2019-04-07T02:04:48.960Z,23.15
2019-04-07T02:07:19.550Z,17.98
2019-04-07T02:12:19.919Z,26.42
2019-04-07T02:14:53.325Z,21.50
2019-04-07T02:17:30.188Z,21.68
2019-04-07T02:20:06.704Z,25.70
2019-04-07T02:22:52.094Z,21.75
2019-04-07T02:25:25.187Z,20.57
2019-04-07T02:27:58.447Z,21.75
2019-04-07T02:30:35.242Z,22.42
2019-04-07T02:33:08.650Z,22.00
2019-04-07T02:35:41.846Z,20.90
2019-04-07T02:38:19.230Z,25.32
2019-04-07T02:41:09.016Z,20.80
2019-04-07T02:43:46.558Z,16.52
2019-04-07T02:46:36.512Z,23.95
2019-04-07T02:49:08.104Z,22.82
2019-04-07T02:51:42.069Z,23.10
2019-04-07T02:54:15.503Z,28.25
2019-04-07T02:56:48.925Z,26.07
2019-04-07T02:59:41.089Z,23.60
2019-04-07T03:02:24.959Z,19.73
2019-04-07T03:05:02.143Z,24.90
2019-04-07T03:07:35.689Z,22.07
2019-04-07T03:10:20.313Z,22.50
2019-04-07T03:13:06.165Z,24.57
2019-04-07T03:15:40.869Z,29.12
2019-04-07T03:18:12.576Z,22.70
2019-04-07T03:20:45.971Z,22.05
2019-04-07T03:23:18.969Z,23.27
2019-04-07T03:26:02.218Z,22.02
2019-04-07T03:28:33.346Z,24.90
2019-04-07T03:31:07.140Z,20.97
2019-04-07T03:33:54.947Z,25.15
2019-04-07T03:37:12.664Z,22.85
2019-04-07T03:39:30.814Z,26.82
2019-04-07T03:42:01.192Z,22.82
2019-04-07T03:44:32.210Z,24.45
2019-04-07T03:47:06.944Z,23.92
2019-04-07T03:49:41.262Z,31.20
2019-04-07T03:52:17.883Z,23.20
2019-04-07T03:55:04.927Z,27.62
2019-04-07T03:57:38.979Z,24.72
2019-04-07T04:00:15.274Z,27.48
2019-04-07T04:02:52.700Z,27.02
2019-04-07T04:05:34.832Z,22.90
2019-04-07T04:08:07.722Z,24.77
2019-04-07T04:10:38.523Z,30.62
2019-04-07T04:13:12.307Z,28.25
2019-04-07T04:15:43.461Z,31.73
2019-04-07T04:18:12.566Z,30.75
2019-04-07T04:20:41.239Z,29.50
2019-04-07T04:23:10.438Z,30.37
2019-04-07T04:25:40.728Z,31.52
2019-04-07T04:28:09.734Z,27.27
2019-04-07T04:30:38.401Z,28.87
2019-04-07T04:33:07.991Z,33.40
2019-04-07T04:35:37.556Z,29.23
2019-04-07T04:38:06.630Z,30.05
2019-04-07T04:40:36.038Z,27.82
2019-04-07T04:43:04.894Z,30.62
2019-04-07T04:45:33.838Z,25.05
2019-04-07T04:48:02.797Z,23.57
2019-04-07T04:50:31.832Z,30.92
2019-04-07T04:53:02.528Z,28.35
2019-04-07T04:55:31.882Z,30.30
2019-04-07T04:58:00.701Z,28.90
2019-04-07T05:00:29.385Z,26.55
2019-04-07T05:02:58.174Z,26.15
2019-04-07T05:05:26.858Z,28.95
2019-04-07T05:08:00.824Z,25.85
2019-04-07T05:10:26.540Z,30.32
2019-04-07T05:12:55.284Z,27.98
2019-04-07T05:15:24.195Z,27.65
2019-04-07T05:17:52.960Z,27.07
2019-04-07T05:20:21.750Z,26.52
2019-04-07T05:22:51.211Z,26.05
2019-04-07T05:25:20.578Z,27.67
2019-04-07T05:27:49.505Z,32.85
2019-04-07T05:30:18.364Z,29.18
2019-04-07T05:32:47.887Z,26.97
2019-04-07T05:35:16.569Z,26.50
2019-04-07T05:37:45.895Z,27.07
2019-04-07T05:40:15.381Z,32.53
2019-04-07T05:42:44.479Z,27.48
2019-04-07T05:45:13.201Z,29.72
2019-04-07T05:47:47.805Z,29.07
2019-04-07T05:50:13.319Z,31.68
2019-04-07T05:52:42.187Z,28.32
2019-04-07T05:55:11.022Z,29.95
2019-04-07T05:57:39.935Z,28.50
2019-04-07T06:00:15.680Z,34.25
2019-04-07T06:02:42.929Z,32.48
2019-04-07T06:05:12.049Z,33.18
2019-04-07T06:07:41.473Z,31.85
2019-04-07T06:10:10.292Z,27.30
2019-04-07T06:12:41.555Z,34.27
2019-04-07T06:15:10.789Z,28.80
2019-04-07T06:17:40.019Z,32.23
2019-04-07T06:20:12.153Z,31.35
2019-04-07T06:22:39.182Z,30.70
2019-04-07T06:25:09.603Z,33.70
2019-04-07T06:27:38.444Z,30.85
2019-04-07T06:30:09.769Z,37.55
2019-04-07T06:32:39.654Z,32.28
2019-04-07T06:35:08.531Z,32.95
2019-04-07T06:37:37.413Z,33.78
2019-04-07T06:40:06.219Z,33.65
2019-04-07T06:42:36.513Z,31.37
2019-04-07T06:45:10.950Z,32.88
2019-04-07T06:47:50.789Z,32.38
2019-04-07T06:50:27.103Z,38.73
2019-04-07T06:52:57.688Z,30.20
2019-04-07T06:55:29.663Z,31.37
2019-04-07T06:58:08.263Z,37.45
2019-04-07T07:00:55.941Z,38.75
2019-04-07T07:03:43.068Z,33.85
2019-04-07T07:06:29.723Z,32.48
2019-04-07T07:09:13.789Z,30.10
2019-04-07T07:11:56.136Z,37.20
2019-04-07T07:14:38.484Z,35.60
2019-04-07T07:17:16.996Z,33.83
2019-04-07T07:20:03.593Z,32.17
2019-04-07T07:22:51.149Z,32.25
2019-04-07T07:25:20.425Z,26.95
2019-04-07T07:27:49.442Z,34.20
2019-04-07T07:30:19.601Z,29.02
2019-04-07T07:32:50.887Z,42.13
2019-04-07T07:35:19.010Z,31.00
2019-04-07T07:37:48.357Z,29.12
2019-04-07T07:40:18.313Z,42.33
2019-04-07T07:42:49.809Z,31.00
2019-04-07T07:45:18.590Z,34.63
2019-04-07T07:47:51.222Z,32.23
2019-04-07T07:50:19.096Z,32.98
2019-04-07T07:52:51.296Z,32.33
2019-04-07T07:55:18.369Z,30.40
2019-04-07T07:57:47.077Z,30.77
2019-04-07T08:00:15.758Z,32.13
2019-04-07T08:02:44.462Z,34.73
2019-04-07T08:05:13.612Z,27.60
2019-04-07T08:07:46.820Z,29.15
2019-04-07T08:10:13.200Z,33.48
2019-04-07T08:12:42.283Z,29.15
2019-04-07T08:15:11.610Z,34.80
2019-04-07T08:17:43.087Z,34.73
2019-04-07T08:20:31.739Z,37.95
2019-04-07T08:23:01.444Z,37.55
2019-04-07T08:25:33.596Z,29.92
2019-04-07T08:28:04.496Z,31.62
2019-04-07T08:30:32.889Z,31.87
2019-04-07T08:33:02.449Z,37.03
2019-04-07T08:35:35.688Z,35.85
2019-04-07T08:38:02.283Z,34.60
2019-04-07T08:40:30.995Z,36.23
2019-04-07T08:43:00.475Z,33.10
2019-04-07T08:45:32.537Z,35.92
2019-04-07T08:48:00.760Z,33.48
2019-04-07T08:50:29.884Z,34.90
2019-04-07T08:52:59.018Z,30.75
2019-04-07T08:55:28.343Z,33.73
2019-04-07T08:58:00.146Z,32.10
2019-04-07T09:00:29.314Z,32.98
2019-04-07T09:03:03.886Z,31.35
2019-04-07T09:05:31.150Z,33.00
2019-04-07T09:07:59.464Z,32.67
2019-04-07T09:10:35.662Z,33.95
2019-04-07T09:13:08.013Z,42.27
2019-04-07T09:15:48.555Z,38.73
2019-04-07T09:18:18.119Z,36.28
2019-04-07T09:20:49.456Z,33.25
2019-04-07T09:23:20.122Z,30.30
2019-04-07T09:26:10.098Z,29.82
2019-04-07T09:28:44.258Z,35.03
2019-04-07T09:31:17.558Z,33.40
2019-04-07T09:34:00.150Z,33.20
2019-04-07T09:36:32.324Z,31.45
2019-04-07T09:39:07.876Z,33.35
2019-04-07T09:41:41.372Z,33.58
2019-04-07T09:44:15.940Z,30.05
2019-04-07T09:46:55.261Z,28.75
2019-04-07T09:49:28.257Z,28.92
2019-04-07T09:52:04.283Z,32.03
2019-04-07T09:54:34.542Z,30.20
2019-04-07T09:57:21.246Z,42.67
2019-04-07T09:59:53.508Z,27.25
2019-04-07T10:02:39.416Z,28.92
2019-04-07T10:05:11.247Z,29.82
2019-04-07T10:07:57.953Z,33.35
2019-04-07T10:10:44.862Z,42.38
2019-04-07T10:13:21.562Z,31.02
2019-04-07T10:15:58.217Z,30.30
2019-04-07T10:18:28.590Z,29.92
2019-04-07T10:21:01.751Z,36.53
2019-04-07T10:23:49.678Z,36.58
2019-04-07T10:26:20.160Z,31.55
2019-04-07T10:28:56.246Z,34.30
2019-04-07T10:31:26.492Z,33.65
2019-04-07T10:34:13.321Z,41.23
2019-04-07T10:36:56.777Z,35.38
2019-04-07T10:39:33.724Z,33.88
2019-04-07T10:42:10.384Z,35.48
2019-04-07T10:44:57.232Z,33.15
2019-04-07T10:47:30.641Z,32.08
2019-04-07T10:50:08.496Z,34.70
2019-04-07T10:52:45.891Z,30.85
2019-04-07T10:55:28.886Z,34.55
2019-04-07T10:58:05.440Z,35.98
2019-04-07T11:00:48.549Z,28.90
2019-04-07T11:05:59.391Z,31.70
2019-04-07T11:08:35.605Z,30.82
2019-04-07T11:11:06.269Z,32.05
2019-04-07T11:13:51.785Z,34.08
2019-04-07T11:16:40.654Z,32.33
2019-04-07T11:19:11.106Z,30.23
2019-04-07T11:21:57.906Z,34.23
2019-04-07T11:24:38.072Z,37.05
2019-04-07T11:27:13.051Z,27.52
2019-04-07T11:30:00.865Z,28.95
2019-04-07T11:32:46.188Z,27.82
2019-04-07T11:35:17.083Z,29.07
2019-04-07T11:38:02.791Z,32.28
2019-04-07T11:40:52.397Z,31.97
2019-04-07T11:43:38.059Z,27.22
2019-04-07T11:46:11.944Z,35.52
2019-04-07T11:48:54.786Z,29.07
2019-04-07T11:51:28.172Z,34.50
2019-04-07T11:54:35.010Z,37.78
2019-04-07T11:57:08.673Z,32.00
2019-04-07T11:59:49.013Z,29.15
2019-04-07T12:02:20.821Z,34.60
2019-04-07T12:05:00.621Z,32.28
2019-04-07T12:07:34.395Z,28.50
2019-04-07T12:10:22.491Z,34.50
2019-04-07T12:12:57.018Z,31.68
2019-04-07T12:15:34.722Z,30.97
2019-04-07T12:18:18.973Z,31.68
2019-04-07T12:21:04.175Z,33.20
2019-04-07T12:23:35.700Z,36.10
2019-04-07T12:26:11.702Z,29.75
2019-04-07T12:28:50.026Z,31.25
2019-04-07T12:31:25.977Z,30.35
2019-04-07T12:34:14.042Z,35.95
2019-04-07T12:37:03.910Z,33.30
2019-04-07T12:39:34.135Z,42.08
2019-04-07T12:42:08.340Z,35.48
2019-04-07T12:44:57.085Z,26.52
2019-04-07T12:47:33.128Z,30.48
2019-04-07T12:50:09.282Z,27.48
2019-04-07T12:52:59.414Z,29.42
2019-04-07T12:55:49.625Z,31.40
2019-04-07T12:58:16.282Z,30.40
2019-04-07T13:01:06.248Z,32.17
2019-04-07T13:03:30.443Z,40.75
2019-04-07T13:06:00.723Z,26.42
2019-04-07T13:08:32.171Z,29.77
2019-04-07T13:11:08.909Z,31.17
2019-04-07T13:13:54.186Z,31.15
2019-04-07T13:16:33.818Z,32.03
2019-04-07T13:19:15.078Z,33.13
2019-04-07T13:22:03.326Z,30.68
2019-04-07T13:24:39.220Z,28.45
2019-04-07T13:27:26.471Z,37.78
2019-04-07T13:29:57.026Z,27.15
2019-04-07T13:32:41.796Z,27.27
2019-04-07T13:35:13.949Z,30.65
2019-04-07T13:38:01.235Z,26.60
2019-04-07T13:40:31.839Z,32.83
2019-04-07T13:43:04.227Z,25.32
2019-04-07T13:45:53.725Z,30.88
2019-04-07T13:48:30.146Z,31.65
2019-04-07T13:51:06.295Z,27.48
2019-04-07T13:53:39.243Z,30.25
2019-04-07T13:56:26.452Z,63.17
2019-04-07T13:58:57.010Z,27.48
2019-04-07T14:01:36.184Z,30.08
2019-04-07T14:04:18.239Z,34.88
2019-04-07T14:06:49.046Z,36.30
2019-04-07T14:12:09.942Z,30.57
2019-04-07T14:14:38.263Z,32.25
2019-04-07T14:17:24.790Z,34.23
2019-04-07T14:20:01.141Z,35.75
2019-04-07T14:22:34.302Z,33.40
2019-04-07T14:25:22.291Z,35.55
2019-04-07T14:27:52.625Z,36.88
2019-04-07T14:30:39.694Z,31.90
2019-04-07T14:33:28.271Z,30.95
2019-04-07T14:36:07.377Z,33.80
2019-04-07T14:38:47.644Z,36.35
2019-04-07T14:41:18.310Z,36.07
2019-04-07T14:43:51.957Z,36.40
2019-04-07T14:46:31.141Z,37.35
2019-04-07T14:49:07.707Z,35.58
2019-04-07T14:51:57.012Z,33.70
2019-04-07T14:54:43.939Z,33.73
2019-04-07T14:57:20.729Z,39.63
2019-04-07T14:59:54.433Z,34.13
2019-04-07T15:02:24.744Z,41.70
2019-04-07T15:05:07.446Z,36.10
2019-04-07T15:07:37.900Z,37.10
2019-04-07T15:10:09.534Z,35.17
2019-04-07T15:12:52.427Z,33.65
2019-04-07T15:15:21.486Z,42.90
2019-04-07T15:17:51.189Z,35.95
2019-04-07T15:20:20.365Z,37.67
2019-04-07T15:22:49.484Z,35.58
2019-04-07T15:25:19.432Z,31.23
2019-04-07T15:27:48.496Z,33.90
2019-04-07T15:30:18.064Z,32.38
2019-04-07T15:32:47.095Z,38.08
2019-04-07T15:35:16.555Z,35.65
2019-04-07T15:37:45.468Z,38.98
2019-04-07T15:40:14.231Z,42.08
2019-04-07T15:42:47.951Z,44.98
2019-04-07T15:47:42.500Z,40.55
2019-04-07T15:50:11.809Z,38.15
2019-04-07T15:52:43.734Z,35.48
2019-04-07T15:55:11.594Z,35.08
2019-04-07T15:57:40.791Z,41.83
2019-04-07T16:00:10.017Z,34.95
2019-04-07T16:02:42.111Z,37.48
2019-04-07T16:05:09.463Z,42.62
2019-04-07T16:07:38.255Z,40.55
2019-04-07T16:10:08.001Z,47.73
2019-04-07T16:12:44.884Z,37.48
2019-04-07T16:15:07.632Z,35.60
2019-04-07T16:17:37.266Z,44.00
2019-04-07T16:20:20.633Z,41.00
2019-04-07T16:22:47.630Z,38.70
2019-04-07T16:25:15.500Z,42.62
2019-04-07T16:27:44.630Z,40.00
2019-04-07T16:30:15.961Z,42.33
2019-04-07T16:32:44.884Z,57.10
2019-04-07T16:35:16.310Z,44.27
2019-04-07T16:37:45.772Z,47.25
2019-04-07T16:40:14.814Z,44.55
2019-04-07T16:42:54.539Z,45.55
2019-04-07T16:45:16.713Z,50.70
2019-04-07T16:47:44.423Z,54.98
2019-04-07T16:50:32.674Z,60.92
2019-04-07T16:53:03.579Z,57.05
2019-04-07T16:55:40.290Z,51.10
2019-04-07T16:58:09.745Z,58.60
2019-04-07T17:00:38.487Z,54.50
2019-04-07T17:03:08.365Z,56.95
2019-04-07T17:05:37.545Z,71.87
2019-04-07T17:08:06.321Z,61.98
2019-04-07T17:10:35.447Z,57.95
2019-04-07T17:13:14.604Z,56.95
2019-04-07T17:18:08.422Z,61.30
2019-04-07T17:20:38.190Z,66.00
2019-04-07T17:23:07.258Z,67.58
2019-04-07T17:25:36.089Z,65.70
2019-04-07T17:28:06.186Z,69.05
2019-04-07T17:30:37.917Z,58.35
2019-04-07T17:33:06.435Z,62.85
2019-04-07T17:35:35.877Z,74.67
2019-04-07T17:38:07.045Z,79.27
2019-04-07T17:43:28.744Z,81.90
2019-04-07T17:46:12.697Z,85.05
2019-04-07T17:48:56.733Z,80.50
2019-04-07T17:51:23.967Z,81.47
2019-04-07T17:53:55.093Z,75.75
2019-04-07T17:56:43.101Z,77.95
2019-04-07T17:59:17.731Z,98.90
2019-04-07T18:01:53.610Z,103.60
2019-04-07T18:04:23.029Z,102.00
2019-04-07T18:07:04.350Z,94.45
2019-04-07T18:09:50.179Z,104.67
2019-04-07T18:12:24.837Z,88.92
2019-04-07T18:15:11.662Z,90.03
2019-04-07T18:17:47.671Z,100.18
2019-04-07T18:20:33.632Z,102.47
2019-04-07T18:23:05.267Z,103.58
2019-04-07T18:25:39.194Z,102.50
2019-04-07T18:28:21.503Z,100.18
2019-04-07T18:30:53.839Z,111.35
2019-04-07T18:33:39.489Z,110.60
2019-04-07T18:36:09.790Z,119.02
2019-04-07T18:38:51.909Z,114.88
2019-04-07T18:41:40.412Z,116.73
2019-04-07T18:44:26.824Z,121.82
2019-04-07T18:47:06.767Z,127.58
2019-04-07T18:49:37.595Z,129.33
2019-04-07T18:52:22.601Z,141.88
2019-04-07T18:55:09.770Z,124.47
2019-04-07T18:57:46.248Z,126.97
2019-04-07T19:00:16.930Z,128.80
2019-04-07T19:02:50.570Z,130.85
2019-04-07T19:05:36.921Z,138.05
2019-04-07T19:08:12.976Z,152.95
2019-04-07T19:10:45.114Z,137.25
2019-04-07T19:13:17.587Z,137.40
2019-04-07T19:15:47.778Z,137.47
2019-04-07T19:18:24.497Z,133.75
2019-04-07T19:21:13.863Z,143.20
2019-04-07T19:23:46.148Z,138.18
2019-04-07T19:26:42.136Z,138.32
2019-04-07T19:29:21.702Z,157.57
2019-04-07T19:31:58.209Z,153.10
2019-04-07T19:34:34.514Z,146.15
2019-04-07T19:37:10.470Z,158.68
2019-04-07T19:39:43.789Z,162.03
2019-04-07T19:42:16.474Z,162.50
2019-04-07T19:44:51.689Z,165.12
2019-04-07T19:47:21.456Z,175.85
2019-04-07T19:49:52.971Z,170.65
2019-04-07T19:52:36.214Z,180.10
2019-04-07T19:55:14.234Z,187.10
2019-04-07T19:57:44.909Z,192.40
2019-04-07T20:00:25.782Z,182.75
2019-04-07T20:03:07.678Z,190.32
2019-04-07T20:08:20.684Z,187.88
2019-04-07T20:10:52.319Z,192.35
2019-04-07T20:13:24.293Z,224.47
2019-04-07T20:16:04.544Z,245.97
2019-04-07T20:18:41.727Z,255.40
2019-04-07T20:21:35.102Z,282.90
2019-04-07T20:24:13.147Z,262.17
2019-04-07T20:26:43.574Z,273.75
2019-04-07T20:29:14.903Z,295.35
2019-04-07T20:31:57.440Z,271.70
2019-04-07T20:34:36.504Z,234.07
2019-04-07T20:37:09.350Z,243.82
2019-04-07T20:39:52.051Z,232.62
2019-04-07T20:42:22.325Z,212.53
2019-04-07T20:45:04.342Z,206.57
2019-04-07T20:47:33.371Z,206.53
2019-04-07T20:50:04.278Z,210.10
2019-04-07T20:55:13.514Z,177.27
2019-04-07T20:57:43.973Z,192.43
2019-04-07T21:00:29.252Z,184.00
2019-04-07T21:03:15.266Z,171.53
2019-04-07T21:05:49.117Z,166.20
2019-04-07T21:08:31.136Z,185.82
2019-04-07T21:11:09.082Z,152.32
2019-04-07T21:13:39.497Z,130.67
2019-04-07T21:16:16.620Z,102.53
2019-04-07T21:18:47.133Z,84.30
2019-04-07T21:21:23.478Z,58.17
2019-04-07T21:23:54.037Z,54.23
2019-04-07T21:26:28.480Z,47.95
2019-04-07T21:29:10.495Z,44.00
2019-04-07T21:34:43.594Z,43.02
2019-04-07T21:37:17.358Z,42.35
2019-04-07T21:39:50.449Z,37.03
2019-04-07T21:42:26.392Z,39.63
2019-04-07T21:45:12.810Z,38.48
2019-04-07T21:47:44.020Z,36.28
2019-04-07T21:50:15.142Z,39.18
2019-04-07T21:52:54.495Z,43.40
2019-04-07T21:55:35.573Z,38.58
2019-04-07T21:58:08.757Z,38.50
2019-04-07T22:00:55.344Z,36.58
2019-04-07T22:03:29.021Z,37.75
2019-04-07T22:06:00.548Z,40.75
2019-04-07T22:08:36.897Z,39.78
2019-04-07T22:11:05.778Z,36.17
2019-04-07T22:13:35.499Z,45.73
2019-04-07T22:16:05.805Z,37.85
2019-04-07T22:18:37.416Z,40.17
2019-04-07T22:21:04.941Z,39.38
2019-04-07T22:23:33.785Z,44.38
2019-04-07T22:26:02.598Z,44.77
2019-04-07T22:28:31.762Z,44.42
2019-04-07T22:31:01.498Z,41.48
2019-04-07T22:33:32.423Z,45.33
2019-04-07T22:36:01.751Z,47.50
2019-04-07T22:38:31.470Z,42.53
2019-04-07T22:41:00.615Z,47.10
2019-04-07T22:43:29.317Z,43.92
2019-04-07T22:46:07.245Z,47.00
2019-04-07T22:48:29.424Z,48.75
2019-04-07T22:50:58.863Z,50.17
2019-04-07T22:53:30.945Z,46.13
2019-04-07T22:55:59.029Z,48.48
2019-04-07T22:58:28.058Z,45.05
2019-04-07T23:00:56.736Z,44.35
2019-04-07T23:03:26.067Z,45.25
2019-04-07T23:05:55.502Z,45.52
2019-04-07T23:08:24.418Z,48.25
2019-04-07T23:10:53.094Z,40.58
2019-04-07T23:13:21.807Z,47.27
2019-04-07T23:15:50.488Z,43.30
2019-04-07T23:18:20.736Z,42.43
2019-04-07T23:20:49.558Z,43.83
2019-04-07T23:23:18.252Z,46.37
2019-04-07T23:25:46.925Z,46.95
2019-04-07T23:28:16.640Z,45.52
2019-04-07T23:30:45.509Z,42.43
2019-04-07T23:33:14.655Z,41.68
2019-04-07T23:35:43.589Z,46.02
2019-04-07T23:38:12.285Z,43.73
2019-04-07T23:40:41.841Z,45.98
2019-04-07T23:43:11.142Z,54.27
2019-04-07T23:45:40.146Z,49.67
2019-04-07T23:48:08.846Z,45.78
2019-04-07T23:50:37.541Z,43.63
2019-04-07T23:53:42.923Z,41.88
2019-04-07T23:56:12.167Z,40.15
2019-04-07T23:58:41.263Z,41.48
